createdAt,value
2019-05-29T00:01:27.578Z,10.55
2019-05-29T00:03:56.265Z,10.25
2019-05-29T00:06:25.022Z,10.08
2019-05-29T00:09:10.025Z,10.05
2019-05-29T00:11:44.661Z,10.55
2019-05-29T00:14:43.739Z,11.33
2019-05-29T00:17:19.392Z,10.57
2019-05-29T00:19:54.104Z,10.13
2019-05-29T00:22:54.652Z,10.13
2019-05-29T00:25:55.572Z,10.17
2019-05-29T00:29:17.930Z,11.57
2019-05-29T00:31:52.870Z,11.22
2019-05-29T00:34:24.648Z,10.40
2019-05-29T00:36:53.319Z,10.13
2019-05-29T00:39:29.761Z,10.27
2019-05-29T00:42:03.580Z,10.63
2019-05-29T00:44:56.385Z,11.40
2019-05-29T00:47:32.191Z,11.07
2019-05-29T00:50:06.459Z,11.43
2019-05-29T00:52:36.238Z,10.83
2019-05-29T00:55:17.000Z,10.10
2019-05-29T00:57:45.656Z,10.47
2019-05-29T01:00:17.929Z,11.80
2019-05-29T01:02:49.310Z,11.00
2019-05-29T01:05:33.074Z,10.90
2019-05-29T01:08:04.945Z,10.83
2019-05-29T01:10:39.742Z,11.10
2019-05-29T01:13:11.122Z,10.63
2019-05-29T01:15:40.588Z,10.65
2019-05-29T01:18:11.619Z,11.50
2019-05-29T01:20:43.052Z,12.20
2019-05-29T01:23:28.236Z,11.48
2019-05-29T01:25:59.479Z,11.87
2019-05-29T01:28:34.167Z,15.65
2019-05-29T01:31:04.795Z,12.80
2019-05-29T01:33:39.352Z,11.57
2019-05-29T01:36:13.927Z,11.90
2019-05-29T01:38:49.046Z,11.97
2019-05-29T01:41:23.621Z,11.37
2019-05-29T01:44:01.285Z,12.90
2019-05-29T01:46:29.982Z,11.30
2019-05-29T01:49:17.888Z,12.47
2019-05-29T01:52:33.184Z,12.03
2019-05-29T01:55:03.141Z,11.07
2019-05-29T01:58:09.470Z,12.47
2019-05-29T02:04:07.160Z,11.43
2019-05-29T02:06:38.997Z,12.03
2019-05-29T02:09:35.887Z,13.73
2019-05-29T02:12:07.706Z,11.80
2019-05-29T02:24:21.084Z,14.10
2019-05-29T02:27:59.885Z,13.97
2019-05-29T02:30:34.312Z,12.37
2019-05-29T02:33:14.980Z,10.93
2019-05-29T02:35:49.773Z,11.63
2019-05-29T02:38:25.456Z,12.30
2019-05-29T02:40:58.298Z,12.57
2019-05-29T02:43:30.108Z,12.27
2019-05-29T02:46:10.679Z,13.00
2019-05-29T02:48:46.107Z,12.70
2019-05-29T02:51:22.064Z,12.47
2019-05-29T02:54:00.258Z,13.53
2019-05-29T02:56:29.161Z,12.57
2019-05-29T02:59:04.462Z,11.73
2019-05-29T03:01:35.057Z,11.50
2019-05-29T03:04:15.859Z,11.43
2019-05-29T03:06:50.544Z,10.97
2019-05-29T03:09:28.474Z,11.73
2019-05-29T03:12:02.352Z,10.93
2019-05-29T03:14:34.604Z,10.50
2019-05-29T03:17:12.686Z,12.13
2019-05-29T03:19:47.084Z,11.07
2019-05-29T03:22:21.520Z,11.23
2019-05-29T03:24:52.836Z,11.17
2019-05-29T03:27:25.589Z,11.12
2019-05-29T03:30:09.270Z,10.00
2019-05-29T03:32:48.337Z,11.73
2019-05-29T03:35:17.110Z,12.10
2019-05-29T03:37:51.032Z,12.00
2019-05-29T03:40:19.726Z,11.10
2019-05-29T03:42:51.417Z,10.57
2019-05-29T03:48:09.197Z,10.80
2019-05-29T03:50:41.804Z,10.70
2019-05-29T03:53:13.192Z,12.50
2019-05-29T03:55:55.982Z,11.03
2019-05-29T03:58:35.162Z,10.43
2019-05-29T04:04:45.670Z,9.37
2019-05-29T04:07:17.269Z,8.90
2019-05-29T04:10:29.386Z,8.10
2019-05-29T04:13:03.939Z,6.53
2019-05-29T04:16:08.922Z,6.15
2019-05-29T04:18:38.827Z,6.33
2019-05-29T04:21:31.922Z,6.30
2019-05-29T04:24:06.291Z,5.87
2019-05-29T04:26:40.563Z,5.43
2019-05-29T04:29:11.946Z,5.25
2019-05-29T04:32:07.706Z,5.85
2019-05-29T04:34:48.643Z,4.92
2019-05-29T04:37:20.049Z,5.12
2019-05-29T04:42:33.988Z,4.70
2019-05-29T04:49:06.604Z,4.70
2019-05-29T04:51:39.692Z,4.80
2019-05-29T04:54:15.207Z,3.98
2019-05-29T04:56:47.372Z,4.25
2019-05-29T04:59:18.654Z,4.45
2019-05-29T05:02:20.547Z,4.90
2019-05-29T05:04:54.835Z,4.65
2019-05-29T05:07:26.271Z,4.58
2019-05-29T05:09:57.707Z,4.80
2019-05-29T05:15:04.715Z,5.53
2019-05-29T05:18:07.972Z,6.03
2019-05-29T05:20:50.143Z,6.40
2019-05-29T05:23:48.924Z,6.22
2019-05-29T05:26:20.782Z,6.72
2019-05-29T05:28:55.166Z,6.17
2019-05-29T05:31:57.161Z,5.85
2019-05-29T05:34:30.452Z,5.45
2019-05-29T05:37:05.369Z,5.17
2019-05-29T05:39:49.180Z,5.70
2019-05-29T05:42:18.416Z,4.90
2019-05-29T05:45:01.890Z,4.58
2019-05-29T05:47:57.380Z,4.28
2019-05-29T05:50:27.742Z,4.45
2019-05-29T05:52:59.524Z,4.50
2019-05-29T05:56:05.023Z,4.40
2019-05-29T05:58:37.815Z,4.33
2019-05-29T06:01:51.415Z,4.45
2019-05-29T06:05:12.100Z,4.22
2019-05-29T06:07:51.030Z,4.90
2019-05-29T06:10:22.553Z,4.28
2019-05-29T06:13:01.411Z,5.00
2019-05-29T06:15:36.538Z,4.25
2019-05-29T06:18:20.972Z,4.08
2019-05-29T06:21:13.655Z,4.30
2019-05-29T06:23:59.591Z,4.25
2019-05-29T06:26:49.929Z,4.78
2019-05-29T06:30:03.865Z,4.53
2019-05-29T06:32:53.628Z,4.75
2019-05-29T06:35:25.279Z,4.67
2019-05-29T06:37:53.967Z,5.00
2019-05-29T06:41:22.417Z,5.00
2019-05-29T06:44:02.958Z,5.03
2019-05-29T06:46:34.372Z,5.47
2019-05-29T06:49:06.061Z,5.17
2019-05-29T06:51:44.678Z,5.33
2019-05-29T06:54:43.981Z,5.97
2019-05-29T06:57:18.167Z,5.22
2019-05-29T06:59:49.762Z,5.90
2019-05-29T07:02:24.582Z,6.40
2019-05-29T07:04:58.192Z,5.97
2019-05-29T07:07:27.034Z,6.60
2019-05-29T07:10:08.156Z,5.90
2019-05-29T07:15:12.835Z,6.90
2019-05-29T07:21:26.129Z,7.03
2019-05-29T07:24:00.538Z,7.50
2019-05-29T07:26:45.545Z,8.00
2019-05-29T07:32:19.496Z,8.70
2019-05-29T07:35:06.732Z,8.18
2019-05-29T07:37:35.333Z,8.25
2019-05-29T07:40:08.179Z,8.45
2019-05-29T07:43:24.750Z,8.08
2019-05-29T07:46:19.102Z,7.80
2019-05-29T07:48:49.980Z,7.87
2019-05-29T07:51:46.913Z,7.03
2019-05-29T07:54:22.813Z,7.83
2019-05-29T07:57:18.008Z,7.37
2019-05-29T07:59:55.337Z,8.28
2019-05-29T08:02:41.364Z,7.65
2019-05-29T08:06:02.153Z,7.17
2019-05-29T08:08:31.693Z,7.20
2019-05-29T08:11:33.695Z,7.30
2019-05-29T08:14:05.809Z,7.25
2019-05-29T08:16:46.477Z,6.87
2019-05-29T08:19:17.748Z,7.05
2019-05-29T08:21:54.753Z,6.60
2019-05-29T08:24:24.783Z,7.28
2019-05-29T08:27:01.958Z,6.15
2019-05-29T08:37:04.832Z,7.35
2019-05-29T08:39:36.172Z,7.12
2019-05-29T08:42:21.151Z,7.15
2019-05-29T08:44:28.846Z,7.20
2019-05-29T08:47:30.765Z,7.53
2019-05-29T08:50:17.412Z,7.30
2019-05-29T08:52:53.814Z,7.22
2019-05-29T08:55:32.592Z,7.40
2019-05-29T08:58:03.106Z,6.72
2019-05-29T09:00:35.919Z,6.80
2019-05-29T09:03:08.173Z,6.95
2019-05-29T09:05:40.102Z,7.53
2019-05-29T09:08:11.392Z,7.55
2019-05-29T09:10:43.234Z,7.35
2019-05-29T09:13:36.265Z,7.40
2019-05-29T09:16:35.691Z,7.92
2019-05-29T09:19:10.169Z,7.42
2019-05-29T09:21:45.515Z,8.00
2019-05-29T09:24:17.533Z,7.45
2019-05-29T09:26:56.789Z,7.80
2019-05-29T09:29:31.222Z,7.87
2019-05-29T09:32:05.670Z,8.18
2019-05-29T09:34:37.400Z,8.35
2019-05-29T09:37:06.062Z,8.43
2019-05-29T09:39:37.714Z,8.18
2019-05-29T09:42:08.194Z,7.85
2019-05-29T09:44:40.250Z,7.85
2019-05-29T09:47:26.861Z,8.10
2019-05-29T09:49:58.505Z,7.15
2019-05-29T09:52:30.451Z,7.25
2019-05-29T09:54:58.406Z,8.45
2019-05-29T09:57:55.301Z,8.13
2019-05-29T10:00:30.450Z,8.35
2019-05-29T10:03:01.310Z,8.95
2019-05-29T10:07:59.637Z,8.75
2019-05-29T10:10:28.835Z,8.30
2019-05-29T10:13:25.862Z,7.97
2019-05-29T10:15:55.972Z,8.00
2019-05-29T10:18:32.139Z,7.60
2019-05-29T10:20:57.440Z,6.07
2019-05-29T10:25:56.375Z,7.78
2019-05-29T10:28:49.068Z,7.50
2019-05-29T10:31:03.716Z,8.10
2019-05-29T10:33:32.586Z,7.63
2019-05-29T10:36:04.001Z,6.28
2019-05-29T10:38:34.511Z,8.28
2019-05-29T10:41:06.620Z,8.55
2019-05-29T10:43:35.000Z,5.37
2019-05-29T10:46:04.075Z,6.78
2019-05-29T10:48:32.811Z,5.85
2019-05-29T10:51:01.624Z,5.70
2019-05-29T10:53:32.226Z,6.00
2019-05-29T10:56:04.054Z,6.58
2019-05-29T10:58:47.988Z,7.00
2019-05-29T11:01:03.276Z,6.95
2019-05-29T11:03:31.909Z,7.45
2019-05-29T11:06:00.540Z,6.42
2019-05-29T11:08:29.236Z,5.92
2019-05-29T11:10:57.782Z,6.62
2019-05-29T11:13:26.489Z,6.80
2019-05-29T11:15:55.103Z,6.97
2019-05-29T11:18:23.656Z,6.58
2019-05-29T11:20:53.368Z,7.12
2019-05-29T11:23:22.136Z,6.60
2019-05-29T11:25:51.968Z,6.08
2019-05-29T11:28:20.843Z,6.10
2019-05-29T11:30:51.603Z,6.00
2019-05-29T11:33:19.830Z,6.20
2019-05-29T11:36:05.829Z,5.92
2019-05-29T11:38:20.756Z,6.15
2019-05-29T11:41:00.735Z,6.50
2019-05-29T11:43:19.744Z,7.30
2019-05-29T11:45:48.310Z,6.67
2019-05-29T11:48:16.904Z,6.37
2019-05-29T11:50:45.562Z,7.00
2019-05-29T11:53:14.259Z,6.60
2019-05-29T11:55:42.867Z,7.62
2019-05-29T11:58:28.090Z,6.45
2019-05-29T12:00:42.376Z,5.65
2019-05-29T12:03:18.649Z,6.58
2019-05-29T12:05:47.543Z,6.05
2019-05-29T12:08:21.969Z,6.17
2019-05-29T12:10:51.292Z,6.50
2019-05-29T12:13:21.047Z,6.33
2019-05-29T12:15:51.514Z,5.50
2019-05-29T12:18:24.231Z,6.33
2019-05-29T12:20:52.057Z,5.75
2019-05-29T12:23:26.439Z,4.90
2019-05-29T12:26:16.160Z,4.67
2019-05-29T12:28:28.188Z,5.85
2019-05-29T12:30:57.164Z,6.58
2019-05-29T12:33:28.808Z,5.95
2019-05-29T12:35:59.017Z,6.03
2019-05-29T12:38:28.320Z,6.35
2019-05-29T12:40:57.711Z,6.92
2019-05-29T12:43:28.229Z,6.35
2019-05-29T12:45:57.731Z,8.10
2019-05-29T12:48:26.650Z,7.83
2019-05-29T12:50:56.058Z,8.05
2019-05-29T12:53:30.254Z,9.40
2019-05-29T12:55:56.164Z,9.35
2019-05-29T12:58:24.849Z,9.65
2019-05-29T13:00:54.468Z,9.73
2019-05-29T13:03:24.447Z,8.68
2019-05-29T13:05:54.138Z,8.95
2019-05-29T13:08:31.567Z,8.48
2019-05-29T13:11:00.506Z,7.80
2019-05-29T13:13:32.602Z,8.98
2019-05-29T13:16:05.212Z,9.30
2019-05-29T13:18:40.292Z,9.20
2019-05-29T13:21:09.044Z,8.85
2019-05-29T13:23:45.276Z,9.35
2019-05-29T13:26:08.238Z,9.65
2019-05-29T13:28:40.404Z,9.15
2019-05-29T13:31:09.271Z,8.88
2019-05-29T13:33:38.013Z,8.70
2019-05-29T13:36:06.849Z,8.95
2019-05-29T13:38:35.576Z,7.70
2019-05-29T13:41:10.181Z,8.43
2019-05-29T13:43:39.080Z,7.55
2019-05-29T13:46:07.799Z,9.58
2019-05-29T13:48:36.415Z,9.28
2019-05-29T13:51:05.578Z,9.83
2019-05-29T13:53:34.467Z,8.38
2019-05-29T13:56:05.997Z,9.00
2019-05-29T13:58:34.934Z,8.85
2019-05-29T14:01:04.331Z,7.62
2019-05-29T14:03:33.217Z,7.20
2019-05-29T14:06:03.120Z,8.30
2019-05-29T14:08:35.144Z,8.70
2019-05-29T14:11:05.060Z,8.18
2019-05-29T14:13:33.839Z,8.63
2019-05-29T14:16:02.638Z,8.35
2019-05-29T14:18:31.344Z,7.37
2019-05-29T14:21:00.905Z,8.05
2019-05-29T14:23:29.694Z,8.23
2019-05-29T14:25:58.683Z,7.85
2019-05-29T14:28:27.503Z,7.40
2019-05-29T14:30:56.429Z,7.10
2019-05-29T14:33:25.966Z,6.67
2019-05-29T14:35:54.616Z,5.70
2019-05-29T14:38:23.581Z,6.80
2019-05-29T14:40:52.248Z,5.83
2019-05-29T14:43:21.067Z,6.08
2019-05-29T14:45:50.769Z,5.80
2019-05-29T14:48:22.474Z,5.25
2019-05-29T14:50:51.192Z,5.10
2019-05-29T14:53:20.898Z,5.08
2019-05-29T14:55:53.739Z,5.40
2019-05-29T14:58:39.453Z,6.25
2019-05-29T15:01:09.166Z,6.00
2019-05-29T15:04:03.608Z,5.92
2019-05-29T15:06:52.097Z,5.75
2019-05-29T15:09:26.660Z,5.05
2019-05-29T15:11:58.270Z,5.90
2019-05-29T15:14:30.108Z,5.80
2019-05-29T15:17:00.608Z,5.45
2019-05-29T15:19:31.942Z,4.78
2019-05-29T15:28:20.523Z,4.78
2019-05-29T15:31:26.034Z,5.70
2019-05-29T15:33:49.435Z,5.50
2019-05-29T15:36:34.678Z,4.40
2019-05-29T15:39:10.667Z,4.30
2019-05-29T15:41:42.772Z,4.30
2019-05-29T15:44:22.013Z,4.42
2019-05-29T15:47:10.834Z,4.47
2019-05-29T15:52:10.944Z,3.92
2019-05-29T15:54:40.267Z,4.22
2019-05-29T16:00:36.490Z,3.70
2019-05-29T16:03:39.364Z,3.52
2019-05-29T16:16:30.778Z,3.05
2019-05-29T16:18:34.889Z,2.92
2019-05-29T16:18:35.815Z,2.77
2019-05-29T16:27:11.838Z,2.95
2019-05-29T16:30:17.716Z,3.25
2019-05-29T17:23:55.836Z,1.60
2019-05-29T17:26:49.187Z,1.30
2019-05-29T17:29:23.176Z,1.17
2019-05-29T17:31:57.249Z,1.12
2019-05-29T17:34:31.749Z,1.22
2019-05-29T17:37:00.361Z,1.10
2019-05-29T17:39:32.063Z,1.20
2019-05-29T17:42:00.714Z,1.30
2019-05-29T17:45:05.826Z,1.02
2019-05-29T17:47:34.466Z,1.17
2019-05-29T17:50:04.916Z,1.00
2019-05-29T17:52:37.471Z,1.07
2019-05-29T17:55:08.203Z,1.25
2019-05-29T17:57:43.053Z,1.50
2019-05-29T18:00:16.121Z,1.25
2019-05-29T18:09:29.136Z,1.25
2019-05-29T18:27:11.099Z,1.27
2019-05-29T18:39:00.999Z,1.32
2019-05-29T18:41:30.345Z,1.20
2019-05-29T18:53:05.834Z,1.10
2019-05-29T18:55:47.867Z,1.22
2019-05-29T18:58:18.230Z,1.30
2019-05-29T19:00:56.569Z,1.15
2019-05-29T19:03:34.627Z,1.50
2019-05-29T19:06:16.023Z,1.40
2019-05-29T19:09:18.067Z,1.15
2019-05-29T19:11:35.383Z,1.30
2019-05-29T19:15:51.501Z,1.40
2019-05-29T19:19:41.540Z,1.40
2019-05-29T19:22:34.503Z,1.30
2019-05-29T19:25:59.046Z,1.67
2019-05-29T19:28:30.731Z,1.50
2019-05-29T19:31:11.614Z,1.30
2019-05-29T19:33:47.423Z,1.40
2019-05-29T19:36:21.235Z,1.62
2019-05-29T19:38:56.472Z,1.40
2019-05-29T19:41:30.122Z,1.40
2019-05-29T19:44:28.393Z,1.55
2019-05-29T19:47:36.186Z,1.20
2019-05-29T20:17:10.535Z,1.55
2019-05-29T20:19:50.888Z,1.80
2019-05-29T20:22:42.426Z,1.70
2019-05-29T20:28:06.926Z,1.60
2019-05-29T20:30:38.755Z,1.55
2019-05-29T20:33:08.247Z,1.50
2019-05-29T20:35:39.757Z,1.70
2019-05-29T20:38:10.496Z,1.57
2019-05-29T20:40:43.077Z,1.80
2019-05-29T20:43:13.253Z,1.80
2019-05-29T20:45:45.030Z,2.00
2019-05-29T20:48:14.214Z,1.67
2019-05-29T20:50:43.397Z,1.70
2019-05-29T20:53:13.473Z,1.95
2019-05-29T20:55:43.491Z,1.67
2019-05-29T20:58:24.380Z,2.00
2019-05-29T21:00:55.955Z,1.77
2019-05-29T21:03:28.164Z,1.90
2019-05-29T21:06:06.723Z,2.00
2019-05-29T21:08:41.580Z,1.85
2019-05-29T21:11:13.158Z,1.60
2019-05-29T21:13:48.556Z,1.92
2019-05-29T21:16:19.911Z,1.85
2019-05-29T21:21:23.147Z,2.00
2019-05-29T21:23:52.301Z,1.98
2019-05-29T21:26:29.813Z,2.12
2019-05-29T21:29:04.667Z,2.20
2019-05-29T21:31:35.346Z,1.85
2019-05-29T21:34:04.105Z,2.22
2019-05-29T21:36:38.661Z,2.50
2019-05-29T21:39:09.753Z,2.40
2019-05-29T21:41:41.030Z,2.30
2019-05-29T21:44:12.270Z,2.05
2019-05-29T21:46:40.966Z,2.45
2019-05-29T21:49:15.573Z,2.10
2019-05-29T21:51:50.156Z,2.45
2019-05-29T21:54:18.836Z,2.40
2019-05-29T21:56:53.810Z,2.65
2019-05-29T21:59:33.474Z,2.62
2019-05-29T22:02:05.115Z,2.80
2019-05-29T22:04:44.701Z,2.45
2019-05-29T22:07:16.525Z,2.40
2019-05-29T22:09:48.041Z,2.72
2019-05-29T22:12:19.400Z,2.62
2019-05-29T22:17:22.873Z,2.37
2019-05-29T22:19:52.768Z,2.40
2019-05-29T22:22:21.520Z,2.72
2019-05-29T22:25:02.999Z,2.70
2019-05-29T22:27:55.594Z,2.47
2019-05-29T22:30:26.424Z,2.70
2019-05-29T22:33:01.924Z,2.40
2019-05-29T22:35:30.782Z,2.60
2019-05-29T22:38:25.369Z,2.12
2019-05-29T22:41:02.509Z,2.60
2019-05-29T22:43:37.057Z,2.47
2019-05-29T22:46:16.119Z,2.90
2019-05-29T22:48:46.918Z,2.50
2019-05-29T22:51:23.378Z,2.60
2019-05-29T22:54:04.709Z,2.70
2019-05-29T22:56:36.449Z,2.90
2019-05-29T22:59:11.865Z,2.77
2019-05-29T23:01:42.445Z,2.90
2019-05-29T23:04:13.716Z,2.90
2019-05-29T23:07:02.544Z,3.30
2019-05-29T23:09:52.020Z,2.80
2019-05-29T23:13:03.798Z,2.52
2019-05-29T23:15:33.583Z,3.27
2019-05-29T23:18:04.408Z,2.42
2019-05-29T23:20:38.865Z,2.80
2019-05-29T23:23:20.662Z,2.72
2019-05-29T23:26:04.586Z,2.80
2019-05-29T23:28:37.737Z,2.35
2019-05-29T23:31:14.184Z,2.40
2019-05-29T23:33:45.895Z,2.67
2019-05-29T23:36:20.430Z,2.60
2019-05-29T23:38:53.067Z,2.70
2019-05-29T23:41:24.388Z,2.45
2019-05-29T23:44:15.083Z,2.33
2019-05-29T23:47:17.088Z,2.40
2019-05-29T23:50:05.548Z,2.35
2019-05-29T23:52:45.169Z,2.80
2019-05-29T23:55:13.963Z,2.65
2019-05-29T23:57:42.582Z,3.27
